createdAt,value
2022-07-29T00:02:33.899Z,97170.69
2022-07-29T00:05:35.391Z,97175.72
2022-07-29T00:08:36.833Z,97164.59
2022-07-29T00:11:38.566Z,97172.81
2022-07-29T00:14:40.020Z,97168.28
2022-07-29T00:17:41.514Z,97174.41
2022-07-29T00:20:43.206Z,97176.53
2022-07-29T00:23:44.740Z,97150.69
2022-07-29T00:26:46.461Z,97146.66
2022-07-29T00:29:48.135Z,97152.63
2022-07-29T00:32:49.609Z,97160.25
2022-07-29T00:35:51.154Z,97165.63
2022-07-29T00:38:54.535Z,97163.69
2022-07-29T00:41:55.991Z,97167.63
2022-07-29T00:44:57.490Z,97152.81
2022-07-29T00:47:59.064Z,97154.44
2022-07-29T00:51:03.554Z,97140.41
2022-07-29T00:54:06.987Z,97147.47
2022-07-29T00:57:09.008Z,97150.69
2022-07-29T01:00:14.980Z,97139.53
2022-07-29T01:03:16.773Z,97133.16
2022-07-29T01:06:19.833Z,97128.84
2022-07-29T01:09:42.904Z,97128.22
2022-07-29T01:12:48.726Z,97121.06
2022-07-29T01:16:00.554Z,97118.44
2022-07-29T01:19:14.001Z,97117.78
2022-07-29T01:22:29.878Z,97112.81
2022-07-29T01:25:55.895Z,97111.91
2022-07-29T01:29:10.186Z,97110.00
2022-07-29T01:32:28.963Z,97111.94
2022-07-29T01:35:37.241Z,97107.66
2022-07-29T01:38:42.215Z,97121.56
2022-07-29T01:42:27.938Z,97112.44
2022-07-29T01:45:39.458Z,97119.53
2022-07-29T01:48:48.253Z,97121.09
2022-07-29T01:51:59.936Z,97121.75
2022-07-29T01:55:08.223Z,97113.31
2022-07-29T01:58:10.407Z,97117.16
2022-07-29T02:01:13.761Z,97114.16
2022-07-29T02:04:29.085Z,97108.41
2022-07-29T02:07:33.846Z,97106.38
2022-07-29T02:10:38.008Z,97093.41
2022-07-29T02:13:41.591Z,97105.31
2022-07-29T02:16:44.374Z,97107.06
2022-07-29T02:19:48.167Z,97103.03
2022-07-29T02:22:52.923Z,97093.66
2022-07-29T02:25:56.995Z,97100.78
2022-07-29T02:29:01.037Z,97100.72
2022-07-29T02:32:04.660Z,97093.09
2022-07-29T02:35:07.669Z,97099.94
2022-07-29T02:38:31.666Z,97096.38
2022-07-29T02:41:53.391Z,97102.72
2022-07-29T02:44:55.193Z,97094.28
2022-07-29T02:48:00.688Z,97102.72
2022-07-29T02:51:09.162Z,97093.06
2022-07-29T02:54:33.169Z,97087.75
2022-07-29T02:57:54.742Z,97099.09
2022-07-29T03:01:09.219Z,97094.28
2022-07-29T03:04:14.173Z,97095.84
2022-07-29T03:07:20.298Z,97096.94
2022-07-29T03:10:22.698Z,97094.13
2022-07-29T03:13:25.507Z,97089.03
2022-07-29T03:16:27.441Z,97097.50
2022-07-29T03:19:29.213Z,97096.09
2022-07-29T03:22:31.318Z,97104.09
2022-07-29T03:25:32.893Z,97104.66
2022-07-29T03:28:34.360Z,97108.66
2022-07-29T03:31:35.846Z,97097.56
2022-07-29T03:34:38.778Z,97099.69
2022-07-29T03:37:40.603Z,97105.59
2022-07-29T03:40:48.981Z,97103.81
2022-07-29T03:43:52.427Z,97112.09
2022-07-29T03:46:55.268Z,97124.59
2022-07-29T03:50:03.804Z,97123.47
2022-07-29T03:53:05.422Z,97135.38
2022-07-29T03:56:08.347Z,97124.38
2022-07-29T03:59:12.106Z,97125.84
2022-07-29T04:02:14.950Z,97128.09
2022-07-29T04:05:20.000Z,97124.50
2022-07-29T04:08:21.457Z,97124.81
2022-07-29T04:11:23.027Z,97126.34
2022-07-29T04:14:24.484Z,97127.81
2022-07-29T04:17:25.919Z,97133.66
2022-07-29T04:20:27.657Z,97131.88
2022-07-29T04:23:33.398Z,97129.38
2022-07-29T04:26:35.560Z,97124.16
2022-07-29T04:29:37.032Z,97116.38
2022-07-29T04:32:57.873Z,97124.56
2022-07-29T04:35:59.303Z,97126.50
2022-07-29T04:39:02.015Z,97129.78
2022-07-29T04:42:03.658Z,97131.56
2022-07-29T04:45:05.679Z,97132.81
2022-07-29T04:48:09.394Z,97138.63
2022-07-29T04:51:10.867Z,97146.88
2022-07-29T04:54:12.365Z,97135.25
2022-07-29T04:57:13.881Z,97128.56
2022-07-29T05:00:15.603Z,97124.09
2022-07-29T05:03:17.351Z,97134.34
2022-07-29T05:06:18.808Z,97129.78
2022-07-29T05:09:20.315Z,97132.84
2022-07-29T05:12:22.041Z,97133.84
2022-07-29T05:15:23.531Z,97133.84
2022-07-29T05:18:26.339Z,97137.19
2022-07-29T05:21:27.903Z,97141.31
2022-07-29T05:24:29.427Z,97137.69
2022-07-29T05:27:30.951Z,97139.16
2022-07-29T05:30:32.552Z,97147.34
2022-07-29T05:33:36.133Z,97137.78
2022-07-29T05:36:38.223Z,97145.66
2022-07-29T05:39:47.198Z,97143.75
2022-07-29T05:42:50.674Z,97149.06
2022-07-29T05:45:52.235Z,97139.19
2022-07-29T05:48:53.752Z,97149.28
2022-07-29T05:51:55.390Z,97142.28
2022-07-29T05:54:57.538Z,97137.47
2022-07-29T05:58:01.815Z,97146.22
2022-07-29T06:01:03.610Z,97150.69
2022-07-29T06:04:05.242Z,97152.25
2022-07-29T06:07:07.000Z,97147.97
2022-07-29T06:10:08.850Z,97153.56
2022-07-29T06:13:10.719Z,97155.50
2022-07-29T06:16:12.258Z,97159.19
2022-07-29T06:19:17.479Z,97159.13
2022-07-29T06:22:19.111Z,97160.84
2022-07-29T06:25:20.799Z,97150.81
2022-07-29T06:28:22.377Z,97162.44
2022-07-29T06:31:24.003Z,97160.91
2022-07-29T06:34:25.491Z,97158.69
2022-07-29T06:37:27.273Z,97160.06
2022-07-29T06:40:49.688Z,97161.94
2022-07-29T06:43:55.232Z,97153.44
2022-07-29T06:46:57.095Z,97159.63
2022-07-29T06:49:58.574Z,97154.03
2022-07-29T06:53:00.047Z,97160.19
2022-07-29T06:56:03.306Z,97153.59
2022-07-29T06:59:05.628Z,97158.41
2022-07-29T07:02:07.500Z,97163.41
2022-07-29T07:05:09.169Z,97166.94
2022-07-29T07:08:10.918Z,97180.03
2022-07-29T07:11:12.961Z,97166.47
2022-07-29T07:14:14.427Z,97169.84
2022-07-29T07:17:15.958Z,97179.44
2022-07-29T07:20:18.181Z,97171.56
2022-07-29T07:23:19.981Z,97178.72
2022-07-29T07:26:21.474Z,97182.06
2022-07-29T07:29:22.921Z,97183.28
2022-07-29T07:32:24.607Z,97175.81
2022-07-29T07:35:27.498Z,97181.66
2022-07-29T07:38:29.244Z,97184.56
2022-07-29T07:41:32.533Z,97183.72
2022-07-29T07:44:46.249Z,97179.56
2022-07-29T07:47:55.633Z,97186.06
2022-07-29T07:50:57.130Z,97173.94
2022-07-29T07:53:58.637Z,97187.09
2022-07-29T07:57:00.103Z,97178.84
2022-07-29T08:00:02.116Z,97183.34
2022-07-29T08:03:16.706Z,97184.38
2022-07-29T08:06:18.847Z,97179.84
2022-07-29T08:09:29.270Z,97179.59
2022-07-29T08:12:31.661Z,97181.44
2022-07-29T08:15:33.913Z,97187.50
2022-07-29T08:18:35.778Z,97186.47
2022-07-29T08:21:37.868Z,97181.66
2022-07-29T08:24:47.088Z,97175.16
2022-07-29T08:27:48.620Z,97173.66
2022-07-29T08:30:50.061Z,97175.31
2022-07-29T08:33:52.943Z,97179.09
2022-07-29T08:36:54.417Z,97179.28
2022-07-29T08:39:55.868Z,97178.00
2022-07-29T08:42:57.427Z,97176.09
2022-07-29T08:45:59.121Z,97175.56
2022-07-29T08:49:00.744Z,97180.41
2022-07-29T08:52:03.373Z,97173.69
2022-07-29T08:55:09.718Z,97180.69
2022-07-29T08:58:12.396Z,97177.97
2022-07-29T09:01:21.617Z,97180.69
2022-07-29T09:04:25.855Z,97179.69
2022-07-29T09:07:27.294Z,97182.72
2022-07-29T09:10:36.989Z,97187.56
2022-07-29T09:13:38.433Z,97184.84
2022-07-29T09:16:54.872Z,97177.28
2022-07-29T09:20:09.654Z,97189.63
2022-07-29T09:23:11.182Z,97185.97
2022-07-29T09:26:29.167Z,97176.44
2022-07-29T09:29:34.488Z,97174.72
2022-07-29T09:32:58.129Z,97169.13
2022-07-29T09:36:07.923Z,97166.97
2022-07-29T09:39:09.677Z,97169.78
2022-07-29T09:42:11.398Z,97166.75
2022-07-29T09:45:14.218Z,97160.59
2022-07-29T09:48:32.236Z,97162.81
2022-07-29T09:51:38.629Z,97159.03
2022-07-29T09:54:40.357Z,97154.19
2022-07-29T09:57:42.114Z,97166.00
2022-07-29T10:00:45.011Z,97166.47
2022-07-29T10:03:53.868Z,97159.34
2022-07-29T10:07:05.346Z,97159.72
2022-07-29T10:10:07.512Z,97151.28
2022-07-29T10:13:16.206Z,97151.72
2022-07-29T10:16:18.698Z,97148.56
2022-07-29T10:19:20.596Z,97151.34
2022-07-29T10:22:50.665Z,97147.84
2022-07-29T10:25:46.866Z,97129.88
2022-07-29T10:28:48.396Z,97137.50
2022-07-29T10:31:56.614Z,97142.13
2022-07-29T10:35:19.501Z,97137.97
2022-07-29T10:38:39.246Z,97141.09
2022-07-29T10:42:09.266Z,97136.59
2022-07-29T10:45:10.910Z,97127.00
2022-07-29T10:48:14.352Z,97116.00
2022-07-29T10:51:16.554Z,97118.72
2022-07-29T10:54:36.944Z,97121.59
2022-07-29T10:57:53.692Z,97120.75
2022-07-29T11:00:57.542Z,97120.63
2022-07-29T11:03:59.195Z,97129.66
2022-07-29T11:07:11.164Z,97147.09
2022-07-29T11:10:13.960Z,97141.75
2022-07-29T11:13:56.042Z,97129.22
2022-07-29T11:17:02.979Z,97155.97
2022-07-29T11:20:34.791Z,97182.59
2022-07-29T11:23:44.438Z,97192.28
2022-07-29T11:27:08.530Z,97189.56
2022-07-29T11:30:10.695Z,97210.69
2022-07-29T11:33:54.271Z,97216.44
2022-07-29T11:37:14.077Z,97229.34
2022-07-29T11:40:16.510Z,97249.06
2022-07-29T11:43:58.254Z,97262.81
2022-07-29T11:47:01.222Z,97261.53
2022-07-29T11:50:05.943Z,97248.94
2022-07-29T11:53:13.715Z,97250.00
2022-07-29T11:56:21.254Z,97244.44
2022-07-29T11:59:33.464Z,97241.03
2022-07-29T12:02:43.136Z,97239.44
2022-07-29T12:05:47.955Z,97235.25
2022-07-29T12:08:50.130Z,97227.28
2022-07-29T12:12:03.143Z,97233.88
2022-07-29T12:15:14.829Z,97232.16
2022-07-29T12:18:19.351Z,97232.00
2022-07-29T12:21:20.871Z,97234.50
2022-07-29T12:24:27.574Z,97233.63
2022-07-29T12:27:29.741Z,97240.41
2022-07-29T12:30:42.242Z,97231.19
2022-07-29T12:33:52.690Z,97224.84
2022-07-29T12:36:54.295Z,97232.94
2022-07-29T12:39:56.099Z,97236.78
2022-07-29T12:43:12.601Z,97222.03
2022-07-29T12:46:15.824Z,97206.72
2022-07-29T12:49:23.989Z,97216.22
2022-07-29T12:52:34.986Z,97218.38
2022-07-29T12:55:45.178Z,97210.03
2022-07-29T12:58:50.833Z,97207.69
2022-07-29T13:01:53.169Z,97211.59
2022-07-29T13:04:59.201Z,97208.78
2022-07-29T13:08:21.935Z,97222.81
2022-07-29T13:11:46.643Z,97222.59
2022-07-29T13:14:51.084Z,97232.31
2022-07-29T13:17:54.271Z,97255.78
2022-07-29T13:20:56.366Z,97222.84
2022-07-29T13:23:57.809Z,97217.31
2022-07-29T13:26:59.479Z,97229.81
2022-07-29T13:30:04.316Z,97220.78
2022-07-29T13:33:05.830Z,97236.69
2022-07-29T13:36:07.412Z,97253.13
2022-07-29T13:39:08.865Z,97246.78
2022-07-29T13:42:11.102Z,97231.47
2022-07-29T13:45:12.743Z,97240.88
2022-07-29T13:48:14.187Z,97245.06
2022-07-29T13:51:15.693Z,97243.09
2022-07-29T13:54:17.229Z,97248.28
2022-07-29T13:57:18.726Z,97245.63
2022-07-29T14:00:20.447Z,97235.44
2022-07-29T14:03:21.935Z,97223.66
2022-07-29T14:06:23.410Z,97227.81
2022-07-29T14:09:25.175Z,97227.97
2022-07-29T14:12:26.752Z,97220.81
2022-07-29T14:15:28.280Z,97213.75
2022-07-29T14:18:29.750Z,97209.88
2022-07-29T14:21:31.513Z,97209.09
2022-07-29T14:24:37.114Z,97204.09
2022-07-29T14:27:39.163Z,97206.84
2022-07-29T14:30:40.858Z,97211.84
2022-07-29T14:33:42.579Z,97214.22
2022-07-29T14:36:47.794Z,97208.81
2022-07-29T14:39:49.333Z,97206.97
2022-07-29T14:42:50.794Z,97211.56
2022-07-29T14:45:55.039Z,97214.88
2022-07-29T14:48:58.735Z,97220.28
2022-07-29T14:52:00.641Z,97219.69
2022-07-29T14:55:03.378Z,97208.47
2022-07-29T14:58:10.899Z,97214.28
2022-07-29T15:01:15.108Z,97221.06
2022-07-29T15:04:17.374Z,97225.44
2022-07-29T15:07:19.170Z,97226.03
2022-07-29T15:10:20.958Z,97219.81
2022-07-29T15:13:22.424Z,97219.81
2022-07-29T15:16:24.913Z,97218.78
2022-07-29T15:19:26.635Z,97219.19
2022-07-29T15:22:28.415Z,97217.97
2022-07-29T15:25:29.923Z,97220.44
2022-07-29T15:28:31.491Z,97221.06
2022-07-29T15:31:33.119Z,97217.72
2022-07-29T15:34:35.291Z,97216.72
2022-07-29T15:37:49.249Z,97220.03
2022-07-29T15:40:51.154Z,97207.31
2022-07-29T15:43:52.673Z,97208.38
2022-07-29T15:47:07.286Z,97212.13
2022-07-29T15:50:14.352Z,97202.31
2022-07-29T15:53:15.854Z,97200.44
2022-07-29T15:56:17.847Z,97205.88
2022-07-29T15:59:22.276Z,97212.34
2022-07-29T16:02:24.240Z,97201.94
2022-07-29T16:05:26.158Z,97202.97
2022-07-29T16:08:27.617Z,97205.47
2022-07-29T16:11:29.167Z,97195.69
2022-07-29T16:14:30.628Z,97190.44
2022-07-29T16:17:32.169Z,97203.81
2022-07-29T16:20:33.654Z,97196.28
2022-07-29T16:23:35.140Z,97201.31
2022-07-29T16:26:36.671Z,97198.16
2022-07-29T16:29:38.188Z,97195.69
2022-07-29T16:32:40.166Z,97196.06
2022-07-29T16:35:41.684Z,97200.88
2022-07-29T16:38:47.369Z,97194.84
2022-07-29T16:41:49.239Z,97195.84
2022-07-29T16:44:50.847Z,97198.78
2022-07-29T16:48:00.053Z,97196.06
2022-07-29T16:51:01.977Z,97196.72
2022-07-29T16:54:03.554Z,97200.88
2022-07-29T16:57:05.043Z,97203.81
2022-07-29T17:00:07.387Z,97199.00
2022-07-29T17:03:08.943Z,97192.53
2022-07-29T17:06:11.746Z,97202.75
2022-07-29T17:09:16.031Z,97195.84
2022-07-29T17:12:18.669Z,97205.66
2022-07-29T17:15:20.176Z,97206.53
2022-07-29T17:18:21.695Z,97215.88
2022-07-29T17:21:23.873Z,97208.34
2022-07-29T17:24:25.396Z,97220.44
2022-07-29T17:27:26.846Z,97212.47
2022-07-29T17:30:29.479Z,97220.09
2022-07-29T17:33:31.014Z,97224.91
2022-07-29T17:36:32.834Z,97224.75
2022-07-29T17:39:35.475Z,97236.22
2022-07-29T17:42:36.930Z,97235.19
2022-07-29T17:45:48.975Z,97234.06
2022-07-29T17:48:52.051Z,97236.16
2022-07-29T17:51:55.512Z,97226.00
2022-07-29T17:55:02.494Z,97239.06
2022-07-29T17:58:04.007Z,97232.06
2022-07-29T18:01:05.866Z,97228.97
2022-07-29T18:04:08.554Z,97235.66
2022-07-29T18:07:10.443Z,97237.28
2022-07-29T18:10:12.074Z,97249.34
2022-07-29T18:13:13.898Z,97247.53
2022-07-29T18:16:15.461Z,97245.44
2022-07-29T18:19:17.125Z,97253.56
2022-07-29T18:22:19.373Z,97251.91
2022-07-29T18:25:20.915Z,97245.66
2022-07-29T18:28:22.490Z,97249.59
2022-07-29T18:31:24.209Z,97249.56
2022-07-29T18:34:25.786Z,97253.53
2022-07-29T18:38:00.663Z,97257.00
2022-07-29T18:40:48.728Z,97253.44
2022-07-29T18:43:50.176Z,97242.13
2022-07-29T18:46:52.276Z,97251.44
2022-07-29T18:49:53.869Z,97254.28
2022-07-29T18:52:58.148Z,97250.66
2022-07-29T18:56:01.291Z,97247.06
2022-07-29T18:59:03.148Z,97255.56
2022-07-29T19:02:04.953Z,97256.19
2022-07-29T19:05:09.174Z,97265.44
2022-07-29T19:08:10.691Z,97268.50
2022-07-29T19:11:12.901Z,97270.34
2022-07-29T19:14:14.399Z,97277.72
2022-07-29T19:17:15.861Z,97282.91
2022-07-29T19:20:17.421Z,97283.06
2022-07-29T19:23:19.524Z,97283.41
2022-07-29T19:26:21.094Z,97293.34
2022-07-29T19:29:24.650Z,97292.66
2022-07-29T19:32:26.576Z,97303.63
2022-07-29T19:35:28.468Z,97303.19
2022-07-29T19:38:30.113Z,97312.59
2022-07-29T19:41:31.711Z,97317.00
2022-07-29T19:44:33.194Z,97314.00
2022-07-29T19:47:35.123Z,97316.63
2022-07-29T19:50:37.116Z,97325.03
2022-07-29T19:53:38.661Z,97322.56
2022-07-29T19:56:42.197Z,97316.53
2022-07-29T19:59:44.365Z,97317.00
2022-07-29T20:02:46.448Z,97317.41
2022-07-29T20:05:51.044Z,97314.97
2022-07-29T20:08:58.195Z,97314.84
2022-07-29T20:12:00.352Z,97316.00
2022-07-29T20:15:01.915Z,97314.13
2022-07-29T20:18:03.557Z,97312.47
2022-07-29T20:21:05.154Z,97303.94
2022-07-29T20:24:07.255Z,97308.53
2022-07-29T20:27:13.621Z,97304.91
2022-07-29T20:30:15.308Z,97305.25
2022-07-29T20:33:19.304Z,97312.31
2022-07-29T20:36:20.835Z,97308.97
2022-07-29T20:39:22.447Z,97296.44
2022-07-29T20:42:24.003Z,97299.22
2022-07-29T20:45:25.727Z,97293.91
2022-07-29T20:48:27.210Z,97294.22
2022-07-29T20:51:28.709Z,97293.63
2022-07-29T20:54:30.360Z,97297.13
2022-07-29T20:57:39.311Z,97293.38
2022-07-29T21:00:41.319Z,97293.47
2022-07-29T21:03:42.883Z,97291.13
2022-07-29T21:06:44.327Z,97298.59
2022-07-29T21:09:45.851Z,97299.44
2022-07-29T21:12:47.650Z,97296.63
2022-07-29T21:15:50.228Z,97296.44
2022-07-29T21:18:52.490Z,97293.38
2022-07-29T21:21:55.297Z,97290.59
2022-07-29T21:24:58.946Z,97294.13
2022-07-29T21:28:19.431Z,97299.88
2022-07-29T21:31:20.950Z,97299.03
2022-07-29T21:34:24.570Z,97300.59
2022-07-29T21:37:26.143Z,97292.06
2022-07-29T21:40:27.653Z,97291.69
2022-07-29T21:43:29.744Z,97297.34
2022-07-29T21:46:31.355Z,97292.84
2022-07-29T21:49:32.826Z,97301.97
2022-07-29T21:52:35.744Z,97304.41
2022-07-29T21:55:39.306Z,97313.72
2022-07-29T21:58:41.082Z,97332.72
2022-07-29T22:01:42.573Z,97330.63
2022-07-29T22:04:44.638Z,97337.81
2022-07-29T22:07:55.356Z,97330.56
2022-07-29T22:10:59.349Z,97328.34
2022-07-29T22:14:00.815Z,97329.72
2022-07-29T22:17:03.421Z,97338.75
2022-07-29T22:20:05.899Z,97331.47
2022-07-29T22:23:07.744Z,97332.91
2022-07-29T22:26:09.209Z,97326.38
2022-07-29T22:29:11.589Z,97343.63
2022-07-29T22:32:13.100Z,97338.22
2022-07-29T22:35:14.738Z,97358.56
2022-07-29T22:38:18.077Z,97356.53
2022-07-29T22:41:19.472Z,97349.31
2022-07-29T22:44:22.028Z,97351.56
2022-07-29T22:47:39.047Z,97354.81
2022-07-29T22:50:45.400Z,97353.53
2022-07-29T22:53:46.952Z,97356.06
2022-07-29T22:56:48.526Z,97356.47
2022-07-29T22:59:50.018Z,97365.88
2022-07-29T23:02:51.487Z,97364.13
2022-07-29T23:05:53.019Z,97360.16
2022-07-29T23:08:54.498Z,97354.19
2022-07-29T23:11:55.947Z,97353.19
2022-07-29T23:14:57.475Z,97359.78
2022-07-29T23:17:58.994Z,97360.91
2022-07-29T23:21:00.554Z,97354.34
2022-07-29T23:24:01.991Z,97346.44
2022-07-29T23:27:03.845Z,97354.56
2022-07-29T23:30:06.070Z,97354.84
2022-07-29T23:33:07.647Z,97339.22
2022-07-29T23:36:09.133Z,97348.41
2022-07-29T23:39:11.340Z,97339.72
2022-07-29T23:42:12.871Z,97336.13
2022-07-29T23:45:14.354Z,97342.47
2022-07-29T23:48:15.911Z,97346.13
2022-07-29T23:51:17.350Z,97345.28
2022-07-29T23:54:18.822Z,97343.38
2022-07-29T23:57:24.307Z,97346.59
